createdAt,value
2023-05-10T00:03:33.470Z,7.52
2023-05-10T00:08:36.596Z,7.48
2023-05-10T00:13:39.538Z,7.46
2023-05-10T00:18:42.777Z,7.47
2023-05-10T00:23:45.722Z,7.46
2023-05-10T00:28:48.913Z,7.49
2023-05-10T00:33:51.781Z,7.51
2023-05-10T00:38:55.351Z,7.51
2023-05-10T00:43:58.318Z,7.41
2023-05-10T00:49:01.616Z,7.46
2023-05-10T00:54:06.593Z,7.31
2023-05-10T00:59:10.180Z,7.31
2023-05-10T01:04:14.394Z,7.25
2023-05-10T01:09:19.294Z,7.21
2023-05-10T01:14:22.772Z,7.09
2023-05-10T01:19:32.061Z,7.03
2023-05-10T01:24:59.471Z,7.02
2023-05-10T01:30:22.309Z,6.94
2023-05-10T01:35:38.148Z,6.93
2023-05-10T01:41:04.318Z,6.94
2023-05-10T01:46:12.256Z,6.91
2023-05-10T01:51:47.398Z,6.84
2023-05-10T01:56:58.538Z,6.85
2023-05-10T02:02:03.344Z,6.85
2023-05-10T02:07:07.932Z,6.93
2023-05-10T02:12:13.587Z,7.02
2023-05-10T02:17:37.542Z,7.02
2023-05-10T02:22:44.388Z,6.97
2023-05-10T02:27:48.956Z,7.00
2023-05-10T02:32:53.606Z,7.00
2023-05-10T02:37:59.816Z,6.97
2023-05-10T02:43:05.345Z,6.89
2023-05-10T02:48:26.869Z,6.92
2023-05-10T02:53:34.382Z,6.97
2023-05-10T02:58:37.454Z,7.13
2023-05-10T03:03:40.489Z,7.28
2023-05-10T03:08:45.832Z,7.38
2023-05-10T03:14:10.327Z,7.50
2023-05-10T03:19:33.637Z,7.63
2023-05-10T03:24:40.748Z,7.75
2023-05-10T03:29:47.643Z,7.76
2023-05-10T03:34:51.538Z,7.89
2023-05-10T03:39:54.487Z,8.01
2023-05-10T03:44:57.888Z,8.14
2023-05-10T03:50:01.438Z,8.29
2023-05-10T03:55:08.867Z,8.43
2023-05-10T04:00:12.581Z,8.54
2023-05-10T04:05:17.864Z,8.71
2023-05-10T04:10:21.824Z,8.44
2023-05-10T04:15:25.023Z,8.27
2023-05-10T04:20:28.010Z,8.81
2023-05-10T04:25:31.402Z,9.26
2023-05-10T04:30:34.542Z,9.51
2023-05-10T04:35:37.618Z,9.35
2023-05-10T04:40:40.563Z,9.82
2023-05-10T04:46:02.377Z,9.65
2023-05-10T04:51:05.489Z,9.86
2023-05-10T04:56:08.792Z,10.28
2023-05-10T05:01:11.901Z,10.84
2023-05-10T05:06:15.016Z,10.90
2023-05-10T05:11:19.410Z,11.14
2023-05-10T05:16:22.755Z,11.40
2023-05-10T05:21:28.027Z,11.64
2023-05-10T05:26:31.381Z,11.67
2023-05-10T05:31:34.427Z,11.90
2023-05-10T05:36:41.555Z,11.80
2023-05-10T05:41:44.842Z,11.62
2023-05-10T05:46:47.839Z,12.00
2023-05-10T05:51:51.482Z,12.01
2023-05-10T05:57:01.785Z,12.41
2023-05-10T06:02:23.500Z,12.55
2023-05-10T06:07:27.000Z,12.45
2023-05-10T06:12:29.779Z,12.71
2023-05-10T06:17:32.608Z,12.72
2023-05-10T06:22:35.959Z,12.98
2023-05-10T06:27:39.301Z,13.35
2023-05-10T06:32:45.134Z,13.30
2023-05-10T06:37:48.103Z,13.41
2023-05-10T06:42:51.277Z,13.69
2023-05-10T06:47:54.573Z,13.95
2023-05-10T06:52:57.780Z,13.82
2023-05-10T06:58:00.749Z,13.54
2023-05-10T07:03:03.888Z,13.66
2023-05-10T07:08:25.433Z,14.09
2023-05-10T07:13:28.409Z,13.70
2023-05-10T07:18:31.346Z,13.73
2023-05-10T07:23:34.861Z,13.84
2023-05-10T07:28:38.775Z,14.32
2023-05-10T07:33:41.879Z,14.34
2023-05-10T07:38:44.849Z,14.12
2023-05-10T07:43:47.964Z,13.97
2023-05-10T07:48:54.200Z,14.25
2023-05-10T07:53:58.310Z,14.84
2023-05-10T07:59:01.545Z,14.91
2023-05-10T08:04:05.477Z,15.06
2023-05-10T08:09:08.736Z,15.09
2023-05-10T08:14:11.844Z,14.86
2023-05-10T08:19:14.804Z,14.31
2023-05-10T08:24:17.783Z,14.83
2023-05-10T08:29:20.761Z,15.01
2023-05-10T08:34:23.631Z,15.46
2023-05-10T08:39:30.509Z,15.43
2023-05-10T08:44:36.397Z,15.44
2023-05-10T08:49:40.108Z,15.41
2023-05-10T08:54:43.795Z,15.94
2023-05-10T08:59:47.958Z,15.54
2023-05-10T09:04:51.197Z,15.19
2023-05-10T09:09:55.546Z,15.59
2023-05-10T09:15:01.084Z,15.75
2023-05-10T09:20:05.643Z,15.97
2023-05-10T09:25:16.643Z,16.10
2023-05-10T09:30:28.165Z,16.04
2023-05-10T09:35:33.359Z,16.34
2023-05-10T09:40:36.380Z,16.14
2023-05-10T09:45:39.423Z,16.76
2023-05-10T09:51:01.918Z,17.05
2023-05-10T09:56:05.039Z,17.43
2023-05-10T10:01:16.199Z,17.49
2023-05-10T10:06:29.456Z,17.90
2023-05-10T10:11:34.000Z,17.93
2023-05-10T10:16:39.939Z,17.46
2023-05-10T10:21:50.900Z,17.28
2023-05-10T10:26:58.523Z,17.52
2023-05-10T10:32:31.572Z,17.62
2023-05-10T10:37:48.578Z,17.44
2023-05-10T10:42:51.506Z,17.73
2023-05-10T10:48:13.651Z,17.84
2023-05-10T10:53:16.522Z,17.82
2023-05-10T10:58:35.524Z,16.76
2023-05-10T11:03:38.425Z,16.94
2023-05-10T11:08:45.100Z,17.40
2023-05-10T11:13:51.736Z,17.77
2023-05-10T11:19:03.836Z,17.90
2023-05-10T11:24:15.098Z,17.75
2023-05-10T11:29:18.048Z,17.71
2023-05-10T11:34:28.230Z,17.05
2023-05-10T11:39:33.104Z,16.43
2023-05-10T11:44:36.676Z,16.71
2023-05-10T11:49:39.833Z,17.59
2023-05-10T11:54:56.082Z,18.36
2023-05-10T11:59:59.322Z,18.00
2023-05-10T12:05:04.423Z,18.59
2023-05-10T12:10:11.461Z,18.73
2023-05-10T12:15:25.514Z,18.63
2023-05-10T12:20:29.246Z,18.37
2023-05-10T12:25:34.395Z,18.36
2023-05-10T12:30:37.912Z,18.33
2023-05-10T12:35:54.467Z,18.16
2023-05-10T12:41:05.015Z,18.13
2023-05-10T12:46:18.216Z,18.03
2023-05-10T12:51:23.400Z,17.90
2023-05-10T12:56:26.486Z,17.82
2023-05-10T13:01:29.602Z,18.11
2023-05-10T13:06:33.092Z,18.18
2023-05-10T13:11:36.643Z,17.48
2023-05-10T13:16:39.578Z,18.41
2023-05-10T13:21:42.556Z,18.73
2023-05-10T13:26:45.613Z,18.79
2023-05-10T13:31:48.631Z,18.62
2023-05-10T13:36:51.523Z,18.71
2023-05-10T13:41:55.849Z,18.96
2023-05-10T13:46:58.830Z,19.11
2023-05-10T13:52:08.031Z,18.87
2023-05-10T13:57:13.120Z,18.52
2023-05-10T14:02:16.170Z,18.24
2023-05-10T14:07:19.112Z,18.14
2023-05-10T14:12:22.207Z,17.68
2023-05-10T14:17:25.088Z,18.02
2023-05-10T14:22:28.114Z,18.10
2023-05-10T14:27:31.628Z,18.10
2023-05-10T14:32:35.179Z,18.10
2023-05-10T14:37:38.679Z,17.91
2023-05-10T14:42:41.643Z,18.49
2023-05-10T14:47:44.545Z,18.47
2023-05-10T14:52:47.511Z,18.65
2023-05-10T14:57:51.812Z,18.55
2023-05-10T15:02:54.857Z,18.36
2023-05-10T15:07:58.172Z,18.03
2023-05-10T15:13:01.574Z,17.05
2023-05-10T15:18:04.658Z,17.44
2023-05-10T15:23:07.714Z,17.57
2023-05-10T15:28:11.019Z,17.28
2023-05-10T15:33:14.145Z,17.14
2023-05-10T15:38:17.531Z,16.87
2023-05-10T15:43:20.526Z,16.51
2023-05-10T15:48:42.765Z,16.20
2023-05-10T15:54:00.422Z,15.88
2023-05-10T15:59:08.950Z,15.75
2023-05-10T16:04:11.718Z,15.54
2023-05-10T16:09:14.636Z,15.36
2023-05-10T16:14:17.852Z,15.28
2023-05-10T16:19:20.903Z,15.06
2023-05-10T16:24:42.727Z,14.97
2023-05-10T16:29:47.620Z,14.80
2023-05-10T16:35:09.729Z,14.63
2023-05-10T16:40:12.934Z,14.39
2023-05-10T16:45:16.699Z,14.20
2023-05-10T16:50:19.898Z,14.08
2023-05-10T16:55:25.410Z,13.92
2023-05-10T17:00:29.555Z,13.79
2023-05-10T17:05:32.345Z,13.60
2023-05-10T17:10:35.144Z,13.59
2023-05-10T17:15:39.524Z,13.46
2023-05-10T17:20:44.864Z,13.34
2023-05-10T17:25:47.836Z,13.22
2023-05-10T17:30:57.528Z,13.13
2023-05-10T17:36:00.385Z,13.08
2023-05-10T17:41:22.023Z,13.06
2023-05-10T17:46:25.265Z,13.01
2023-05-10T17:51:29.124Z,12.96
2023-05-10T17:56:32.180Z,12.95
2023-05-10T18:01:35.459Z,12.85
2023-05-10T18:06:39.313Z,12.87
2023-05-10T18:11:42.408Z,12.90
2023-05-10T18:16:45.774Z,12.83
2023-05-10T18:21:49.553Z,12.79
2023-05-10T18:26:52.921Z,12.65
2023-05-10T18:31:55.755Z,12.44
2023-05-10T18:37:17.382Z,12.30
2023-05-10T18:42:20.888Z,12.21
2023-05-10T18:47:43.196Z,12.08
2023-05-10T18:52:46.814Z,12.11
2023-05-10T18:57:49.708Z,12.19
2023-05-10T19:02:53.848Z,12.12
2023-05-10T19:07:57.255Z,12.07
2023-05-10T19:13:00.053Z,11.92
2023-05-10T19:18:05.141Z,11.95
2023-05-10T19:23:10.279Z,12.05
2023-05-10T19:28:13.401Z,11.91
2023-05-10T19:33:18.602Z,11.81
2023-05-10T19:38:22.848Z,11.74
2023-05-10T19:43:26.826Z,11.73
2023-05-10T19:48:30.595Z,11.73
2023-05-10T19:53:33.781Z,11.69
2023-05-10T19:58:36.997Z,11.55
2023-05-10T20:03:39.963Z,11.53
2023-05-10T20:08:43.030Z,11.57
2023-05-10T20:13:46.129Z,11.50
2023-05-10T20:18:49.300Z,11.43
2023-05-10T20:23:52.696Z,11.36
2023-05-10T20:28:56.013Z,11.37
2023-05-10T20:33:58.997Z,11.22
2023-05-10T20:39:02.038Z,11.27
2023-05-10T20:44:06.218Z,11.16
2023-05-10T20:49:09.513Z,11.11
2023-05-10T20:54:12.546Z,11.02
2023-05-10T20:59:15.549Z,10.99
2023-05-10T21:04:37.153Z,10.90
2023-05-10T21:09:40.177Z,10.85
2023-05-10T21:14:44.515Z,10.77
2023-05-10T21:19:47.547Z,10.76
2023-05-10T21:24:50.783Z,10.74
2023-05-10T21:30:12.701Z,10.71
2023-05-10T21:35:16.182Z,10.60
2023-05-10T21:40:19.520Z,10.31
2023-05-10T21:45:23.240Z,10.27
2023-05-10T21:50:26.492Z,10.00
2023-05-10T21:55:29.651Z,9.95
2023-05-10T22:00:34.174Z,10.04
2023-05-10T22:05:37.602Z,10.04
2023-05-10T22:10:40.622Z,9.97
2023-05-10T22:15:44.537Z,9.90
2023-05-10T22:20:47.718Z,9.86
2023-05-10T22:25:50.748Z,9.58
2023-05-10T22:30:53.882Z,9.44
2023-05-10T22:35:56.810Z,9.43
2023-05-10T22:40:59.688Z,9.34
2023-05-10T22:46:02.692Z,9.30
2023-05-10T22:51:05.642Z,9.33
2023-05-10T22:56:08.689Z,9.40
2023-05-10T23:01:11.890Z,9.41
2023-05-10T23:06:14.970Z,9.42
2023-05-10T23:11:17.959Z,9.40
2023-05-10T23:16:21.484Z,9.28
2023-05-10T23:21:25.402Z,9.27
2023-05-10T23:26:28.444Z,9.24
2023-05-10T23:31:31.456Z,9.23
2023-05-10T23:36:34.563Z,9.16
2023-05-10T23:41:37.648Z,9.19
2023-05-10T23:46:40.602Z,9.19
2023-05-10T23:51:43.677Z,9.04
2023-05-10T23:56:46.566Z,9.02
